Time;durP1;ratioP1;P1;durP2;ratioP2;P2;SDS_P1;SDS_P2;PMS_P1;PMS_P2;Temp;Humidity;BMP_temperature;BMP_pressure;BME280_temperature;BME280_humidity;BME280_pressure;Samples;Min_cycle;Max_cycle;Signal;HPM_P1;HPM_P2
2023/10/10 00:01:27;;;;;;;12.68;4.38;;;;;;;;;;4979098;28;20067;-83
2023/10/10 00:03:53;;;;;;;16.63;4.53;;;;;;;;;;4988276;28;20043;-84
2023/10/10 00:06:22;;;;;;;12.40;4.53;;;;;;;;;;5005348;28;20075;-83
2023/10/10 00:08:50;;;;;;;11.13;5.10;;;;;;;;;;4978460;28;20069;-83
2023/10/10 00:11:18;;;;;;;11.48;5.10;;;;;;;;;;4975365;28;20359;-84
2023/10/10 00:13:45;;;;;;;12.98;4.95;;;;;;;;;;5005309;28;20054;-84
2023/10/10 00:18:55;;;;;;;17.45;5.78;;;;;;;;;;4994229;28;20114;-84
2023/10/10 00:21:28;;;;;;;10.50;4.78;;;;;;;;;;5015074;28;20079;-84
2023/10/10 00:23:55;;;;;;;13.02;5.70;;;;;;;;;;4995358;28;20042;-84
2023/10/10 00:26:26;;;;;;;12.70;4.82;;;;;;;;;;4997114;28;20259;-85
2023/10/10 00:28:55;;;;;;;11.70;5.03;;;;;;;;;;5006273;28;20046;-83
2023/10/10 00:31:26;;;;;;;24.42;6.82;;;;;;;;;;5012105;28;20041;-84
2023/10/10 00:33:53;;;;;;;14.57;6.50;;;;;;;;;;5007028;28;20049;-84
2023/10/10 00:36:31;;;;;;;16.27;5.88;;;;;;;;;;4997214;28;20112;-84
2023/10/10 00:42:00;;;;;;;12.30;6.03;;;;;;;;;;5005589;28;20536;-84
2023/10/10 00:44:27;;;;;;;14.05;6.00;;;;;;;;;;5002321;28;20057;-83
2023/10/10 00:46:57;;;;;;;19.88;5.95;;;;;;;;;;4989250;28;20044;-84
2023/10/10 00:49:25;;;;;;;15.63;6.30;;;;;;;;;;4991702;28;20040;-83
2023/10/10 00:51:53;;;;;;;13.98;6.00;;;;;;;;;;5013688;28;20056;-84
2023/10/10 00:56:54;;;;;;;10.25;6.20;;;;;;;;;;5002002;28;20053;-83
2023/10/10 00:59:35;;;;;;;12.57;5.90;;;;;;;;;;4996619;28;20058;-83
2023/10/10 01:02:04;;;;;;;14.57;6.18;;;;;;;;;;5008592;28;20930;-82
2023/10/10 01:07:20;;;;;;;17.60;7.65;;;;;;;;;;5010846;28;20086;-84
2023/10/10 01:09:56;;;;;;;22.40;7.72;;;;;;;;;;4980311;28;20037;-84
2023/10/10 01:12:39;;;;;;;15.98;7.55;;;;;;;;;;4993757;28;20052;-84
2023/10/10 01:15:16;;;;;;;17.95;7.53;;;;;;;;;;4998280;28;20127;-83
2023/10/10 01:17:43;;;;;;;14.70;7.57;;;;;;;;;;5008023;28;20053;-82
2023/10/10 01:20:24;;;;;;;17.73;8.35;;;;;;;;;;4996136;28;20091;-84
2023/10/10 01:22:54;;;;;;;18.17;7.72;;;;;;;;;;5000923;28;20037;-84
2023/10/10 01:28:13;;;;;;;14.38;8.15;;;;;;;;;;5007244;28;20568;-79
2023/10/10 01:33:22;;;;;;;13.10;8.90;;;;;;;;;;5005309;28;20049;-77
2023/10/10 01:35:55;;;;;;;17.25;9.45;;;;;;;;;;4995500;28;20092;-79
2023/10/10 01:38:28;;;;;;;19.92;9.73;;;;;;;;;;5007721;28;20120;-80
2023/10/10 01:40:54;;;;;;;19.60;9.55;;;;;;;;;;5009095;28;20037;-79
2023/10/10 01:43:21;;;;;;;25.65;9.93;;;;;;;;;;4983280;28;20105;-79
2023/10/10 01:46:08;;;;;;;19.80;10.25;;;;;;;;;;4977719;28;20077;-81
2023/10/10 01:48:33;;;;;;;20.70;10.55;;;;;;;;;;5008109;28;20068;-81
2023/10/10 01:51:00;;;;;;;19.27;10.45;;;;;;;;;;5006670;28;20033;-79
2023/10/10 01:53:26;;;;;;;21.60;10.32;;;;;;;;;;4978330;28;20037;-79
2023/10/10 01:55:52;;;;;;;19.92;11.00;;;;;;;;;;4989967;28;20049;-78
2023/10/10 01:58:20;;;;;;;22.70;10.68;;;;;;;;;;4994614;28;20041;-79
2023/10/10 02:00:46;;;;;;;15.82;10.23;;;;;;;;;;5004573;28;20041;-79
2023/10/10 02:03:12;;;;;;;18.70;11.25;;;;;;;;;;4991334;28;20060;-78
2023/10/10 02:05:45;;;;;;;20.67;11.70;;;;;;;;;;4995535;28;20116;-79
2023/10/10 02:08:17;;;;;;;21.05;11.57;;;;;;;;;;5001694;28;20552;-78
2023/10/10 02:10:45;;;;;;;19.55;10.90;;;;;;;;;;4992055;28;20088;-80
2023/10/10 02:13:12;;;;;;;18.35;11.77;;;;;;;;;;5007158;28;20504;-81
2023/10/10 02:15:39;;;;;;;24.90;11.25;;;;;;;;;;5022959;28;20056;-79
2023/10/10 02:18:12;;;;;;;24.33;13.45;;;;;;;;;;4995406;28;20088;-79
2023/10/10 02:23:10;;;;;;;22.65;13.15;;;;;;;;;;5014711;28;20101;-80
2023/10/10 02:25:47;;;;;;;19.77;12.60;;;;;;;;;;4997718;28;20654;-78
2023/10/10 02:30:45;;;;;;;22.92;11.73;;;;;;;;;;5008575;28;20060;-81
2023/10/10 02:35:57;;;;;;;18.73;10.98;;;;;;;;;;5012784;28;20378;-81
2023/10/10 02:38:23;;;;;;;22.60;11.65;;;;;;;;;;4992315;28;20120;-83
2023/10/10 02:40:55;;;;;;;25.23;11.45;;;;;;;;;;5008999;28;20073;-83
2023/10/10 02:43:33;;;;;;;19.60;10.93;;;;;;;;;;4977760;28;20077;-82
2023/10/10 02:46:00;;;;;;;22.35;10.95;;;;;;;;;;4982713;28;20069;-83
2023/10/10 02:48:34;;;;;;;20.60;11.13;;;;;;;;;;5001348;28;20073;-82
2023/10/10 02:51:03;;;;;;;20.70;11.35;;;;;;;;;;4988275;28;20042;-82
2023/10/10 02:53:32;;;;;;;22.23;12.02;;;;;;;;;;4995520;28;20034;-83
2023/10/10 02:56:01;;;;;;;26.15;11.50;;;;;;;;;;4996108;28;20049;-83
2023/10/10 02:58:37;;;;;;;21.90;11.02;;;;;;;;;;4993438;28;20053;-83
2023/10/10 03:01:04;;;;;;;24.10;11.85;;;;;;;;;;5002496;28;20128;-82
2023/10/10 03:03:30;;;;;;;24.00;12.95;;;;;;;;;;4974320;28;20045;-84
2023/10/10 03:06:06;;;;;;;21.42;11.43;;;;;;;;;;5002048;28;20045;-83
2023/10/10 03:11:01;;;;;;;22.35;11.82;;;;;;;;;;5002772;28;20057;-82
2023/10/10 03:13:28;;;;;;;21.35;12.88;;;;;;;;;;4992778;28;20041;-83
2023/10/10 03:15:56;;;;;;;24.20;12.75;;;;;;;;;;4988321;28;20128;-83
2023/10/10 03:18:29;;;;;;;22.60;12.18;;;;;;;;;;4985485;28;20056;-83
2023/10/10 03:23:56;;;;;;;20.52;11.93;;;;;;;;;;5005150;28;20050;-84
2023/10/10 03:29:36;;;;;;;23.67;12.55;;;;;;;;;;4984863;28;20492;-84
2023/10/10 03:32:22;;;;;;;30.08;12.52;;;;;;;;;;4992686;28;20056;-84
2023/10/10 03:35:05;;;;;;;24.30;12.73;;;;;;;;;;5018541;28;20571;-83
2023/10/10 03:37:41;;;;;;;24.30;12.13;;;;;;;;;;5004872;28;20038;-83
2023/10/10 05:24:26;;;;;;;30.70;18.35;;;;;;;;;;4991900;28;20084;-82
2023/10/10 05:26:56;;;;;;;34.53;18.27;;;;;;;;;;5008005;28;20053;-81
2023/10/10 05:29:24;;;;;;;25.52;17.02;;;;;;;;;;4986037;28;20108;-82
2023/10/10 05:31:56;;;;;;;34.80;18.48;;;;;;;;;;4999464;28;20087;-81
2023/10/10 05:34:23;;;;;;;25.90;17.58;;;;;;;;;;4980930;28;20528;-82
2023/10/10 05:36:49;;;;;;;27.35;16.67;;;;;;;;;;4987707;28;20100;-82
2023/10/10 05:39:20;;;;;;;29.33;16.88;;;;;;;;;;4997348;28;20076;-83
2023/10/10 05:41:47;;;;;;;24.90;16.00;;;;;;;;;;4986665;28;20186;-82
2023/10/10 05:44:16;;;;;;;26.85;17.27;;;;;;;;;;4995117;28;20045;-81
2023/10/10 05:46:43;;;;;;;25.35;16.17;;;;;;;;;;5007933;28;20054;-81
2023/10/10 05:49:10;;;;;;;27.05;16.27;;;;;;;;;;5005532;28;20125;-80
2023/10/10 05:51:36;;;;;;;25.75;16.83;;;;;;;;;;5002776;28;20107;-82
2023/10/10 05:54:02;;;;;;;32.42;15.30;;;;;;;;;;4985633;28;20041;-81
2023/10/10 05:56:29;;;;;;;28.13;15.63;;;;;;;;;;4982935;28;20042;-81
2023/10/10 05:58:56;;;;;;;23.55;15.85;;;;;;;;;;4968812;28;20044;-78
2023/10/10 06:01:23;;;;;;;30.85;16.17;;;;;;;;;;5004804;28;20050;-80
2023/10/10 06:03:51;;;;;;;28.30;17.13;;;;;;;;;;4987841;28;20132;-79
2023/10/10 06:06:18;;;;;;;24.55;16.02;;;;;;;;;;4967581;28;20042;-81
2023/10/10 06:08:44;;;;;;;25.42;15.38;;;;;;;;;;4999184;28;20030;-84
2023/10/10 06:11:14;;;;;;;25.48;14.98;;;;;;;;;;4987053;28;20753;-82
2023/10/10 06:13:43;;;;;;;28.52;15.15;;;;;;;;;;5000185;28;20046;-84
2023/10/10 06:16:13;;;;;;;26.92;15.57;;;;;;;;;;5005154;28;20077;-84
2023/10/10 06:18:41;;;;;;;27.15;16.17;;;;;;;;;;4998082;28;20045;-83
2023/10/10 06:21:07;;;;;;;24.70;15.38;;;;;;;;;;4983748;28;20047;-84
2023/10/10 06:23:35;;;;;;;27.80;16.52;;;;;;;;;;4998669;28;20042;-84
2023/10/10 06:26:06;;;;;;;27.63;16.60;;;;;;;;;;4987868;28;20053;-81
2023/10/10 06:28:35;;;;;;;27.13;14.63;;;;;;;;;;4999455;28;20037;-84
2023/10/10 06:31:02;;;;;;;22.17;14.23;;;;;;;;;;4999576;28;20045;-84
2023/10/10 06:33:29;;;;;;;30.67;15.48;;;;;;;;;;4972711;28;20046;-83
2023/10/10 06:41:39;;;;;;;59.80;18.83;;;;;;;;;;4985581;28;20046;-85
2023/10/10 06:44:12;;;;;;;33.75;18.40;;;;;;;;;;5000958;28;20053;-81
2023/10/10 06:46:40;;;;;;;37.08;17.17;;;;;;;;;;4982892;28;20061;-84
2023/10/10 06:49:06;;;;;;;33.28;17.10;;;;;;;;;;4997050;28;20038;-82
2023/10/10 06:51:39;;;;;;;30.70;17.27;;;;;;;;;;4999404;28;20108;-83
2023/10/10 06:54:08;;;;;;;30.65;17.83;;;;;;;;;;4998538;28;20042;-83
2023/10/10 06:59:20;;;;;;;39.30;18.98;;;;;;;;;;5002748;28;20042;-84
2023/10/10 07:01:47;;;;;;;40.30;20.42;;;;;;;;;;4986574;28;20041;-84
2023/10/10 07:04:14;;;;;;;39.03;20.75;;;;;;;;;;4970616;28;20038;-82
2023/10/10 07:06:44;;;;;;;42.38;22.98;;;;;;;;;;4997711;28;20060;-83
2023/10/10 07:09:29;;;;;;;43.78;22.50;;;;;;;;;;4985036;28;20045;-83
2023/10/10 07:12:13;;;;;;;45.92;21.85;;;;;;;;;;4971795;28;20177;-83
2023/10/10 07:14:53;;;;;;;40.85;20.23;;;;;;;;;;4983879;28;20081;-86
2023/10/10 07:17:26;;;;;;;54.35;22.88;;;;;;;;;;4987035;28;20046;-78
2023/10/10 07:22:33;;;;;;;46.72;23.10;;;;;;;;;;4996614;28;20046;-78
2023/10/10 07:26:01;;;;;;;57.00;26.58;;;;;;;;;;4985682;28;20125;-79
2023/10/10 07:27:56;;;;;;;57.03;26.23;;;;;;;;;;4986200;28;20497;-78
2023/10/10 07:30:33;;;;;;;52.80;25.17;;;;;;;;;;4983519;28;20045;-79
2023/10/10 07:33:03;;;;;;;56.17;26.80;;;;;;;;;;4984739;28;20054;-80
2023/10/10 07:35:35;;;;;;;55.92;28.05;;;;;;;;;;5003344;28;20046;-79
2023/10/10 07:38:02;;;;;;;49.67;26.58;;;;;;;;;;4986951;28;20046;-79
2023/10/10 07:40:31;;;;;;;52.20;28.13;;;;;;;;;;5000588;28;20100;-80
2023/10/10 07:43:00;;;;;;;45.85;26.17;;;;;;;;;;4987701;28;20096;-79
2023/10/10 07:45:28;;;;;;;64.63;27.63;;;;;;;;;;5004704;28;20054;-79
2023/10/10 07:50:27;;;;;;;46.92;26.33;;;;;;;;;;4998713;28;20042;-82
2023/10/10 07:52:54;;;;;;;42.95;24.45;;;;;;;;;;4985949;28;20037;-78
2023/10/10 07:55:22;;;;;;;46.40;24.23;;;;;;;;;;4993627;28;20044;-77
2023/10/10 07:58:01;;;;;;;41.33;22.83;;;;;;;;;;5003949;28;20071;-79
2023/10/10 08:00:39;;;;;;;39.55;23.52;;;;;;;;;;4990486;28;20042;-79
2023/10/10 08:03:06;;;;;;;39.90;23.80;;;;;;;;;;4999103;28;20517;-78
2023/10/10 08:05:33;;;;;;;35.72;22.60;;;;;;;;;;4988689;28;20046;-79
2023/10/10 08:08:05;;;;;;;31.15;20.73;;;;;;;;;;5010613;28;20125;-79
2023/10/10 08:10:43;;;;;;;33.15;18.67;;;;;;;;;;4988507;28;20038;-80
2023/10/10 08:13:12;;;;;;;33.03;20.38;;;;;;;;;;4989308;28;20052;-82
2023/10/10 08:15:56;;;;;;;30.85;20.63;;;;;;;;;;4981835;28;20132;-79
2023/10/10 08:21:11;;;;;;;25.02;19.02;;;;;;;;;;4998560;28;20042;-80
2023/10/10 08:23:46;;;;;;;24.58;19.88;;;;;;;;;;5006959;28;20038;-82
2023/10/10 08:26:18;;;;;;;28.02;19.00;;;;;;;;;;4969860;28;20052;-80
2023/10/10 08:28:45;;;;;;;31.13;19.33;;;;;;;;;;4967484;28;20038;-86
2023/10/10 08:31:13;;;;;;;32.83;21.48;;;;;;;;;;4999928;28;20408;-85
2023/10/10 08:33:40;;;;;;;35.55;23.67;;;;;;;;;;4983513;28;20104;-84
2023/10/10 08:36:06;;;;;;;38.25;22.92;;;;;;;;;;5002749;28;20057;-85
2023/10/10 08:38:32;;;;;;;45.08;27.88;;;;;;;;;;4989219;28;20453;-84
2023/10/10 08:41:01;;;;;;;46.45;29.67;;;;;;;;;;4984828;28;20494;-83
2023/10/10 08:43:31;;;;;;;49.38;29.15;;;;;;;;;;5018997;28;20092;-85
2023/10/10 08:45:59;;;;;;;52.65;29.15;;;;;;;;;;5001656;28;20066;-85
2023/10/10 08:48:27;;;;;;;52.38;29.13;;;;;;;;;;5002576;28;20064;-86
2023/10/10 08:51:03;;;;;;;54.35;32.15;;;;;;;;;;5000618;28;20034;-85
2023/10/10 08:53:29;;;;;;;52.97;30.98;;;;;;;;;;4988398;28;20057;-84
2023/10/10 08:55:59;;;;;;;51.20;31.90;;;;;;;;;;4982419;28;20038;-85
2023/10/10 08:58:25;;;;;;;49.35;26.67;;;;;;;;;;5022992;28;20490;-88
2023/10/10 09:00:51;;;;;;;53.05;33.53;;;;;;;;;;4999936;28;20802;-84
2023/10/10 09:03:17;;;;;;;53.05;30.80;;;;;;;;;;4972650;28;20457;-83
2023/10/10 09:05:44;;;;;;;57.30;34.15;;;;;;;;;;4989917;28;20489;-83
2023/10/10 09:08:16;;;;;;;51.65;27.92;;;;;;;;;;4990367;28;20046;-83
2023/10/10 09:10:53;;;;;;;54.78;31.02;;;;;;;;;;4981750;28;20420;-85
2023/10/10 09:13:19;;;;;;;48.78;29.55;;;;;;;;;;4985592;28;20121;-84
2023/10/10 09:15:55;;;;;;;47.25;30.38;;;;;;;;;;4992430;28;20091;-83
2023/10/10 09:18:25;;;;;;;51.03;29.92;;;;;;;;;;4985419;28;20085;-83
2023/10/10 09:20:53;;;;;;;45.97;30.23;;;;;;;;;;4986875;28;20042;-84
2023/10/10 09:23:26;;;;;;;47.00;30.73;;;;;;;;;;4992001;28;20045;-82
2023/10/10 09:26:12;;;;;;;46.05;32.05;;;;;;;;;;5010575;28;20041;-84
2023/10/10 09:28:58;;;;;;;50.10;30.25;;;;;;;;;;5002378;28;20055;-81
2023/10/10 09:31:31;;;;;;;42.47;28.52;;;;;;;;;;4984940;28;20049;-82
2023/10/10 09:33:57;;;;;;;45.88;29.17;;;;;;;;;;4987860;28;20050;-82
2023/10/10 09:36:27;;;;;;;48.67;29.08;;;;;;;;;;5006987;28;20042;-84
2023/10/10 09:38:57;;;;;;;43.47;31.05;;;;;;;;;;4989905;28;20045;-84
2023/10/10 09:41:27;;;;;;;46.63;31.20;;;;;;;;;;5009839;28;20366;-83
2023/10/10 09:50:00;;;;;;;45.35;29.73;;;;;;;;;;5009920;28;20501;-83
2023/10/10 09:58:15;;;;;;;40.42;27.50;;;;;;;;;;5004449;28;20045;-85
2023/10/10 10:06:00;;;;;;;46.00;30.10;;;;;;;;;;5013092;28;20120;-83
2023/10/10 10:08:39;;;;;;;44.17;31.00;;;;;;;;;;5014785;28;20041;-83
2023/10/10 10:11:19;;;;;;;42.53;29.08;;;;;;;;;;5029915;28;20057;-88
2023/10/10 10:14:12;;;;;;;49.17;33.33;;;;;;;;;;5008897;28;20042;-87
2023/10/10 10:16:49;;;;;;;48.63;32.28;;;;;;;;;;4997085;28;20420;-85
2023/10/10 10:19:17;;;;;;;46.25;31.42;;;;;;;;;;5000140;28;20045;-87
2023/10/10 10:21:56;;;;;;;52.35;34.90;;;;;;;;;;5009263;28;20049;-87
2023/10/10 10:24:32;;;;;;;45.90;31.48;;;;;;;;;;4994423;28;20045;-85
2023/10/10 10:27:31;;;;;;;46.97;33.45;;;;;;;;;;4996966;28;20073;-87
2023/10/10 10:30:09;;;;;;;46.08;31.35;;;;;;;;;;4956832;28;20048;-84
2023/10/10 10:32:38;;;;;;;49.97;32.28;;;;;;;;;;4971296;28;20072;-87
2023/10/10 10:35:12;;;;;;;46.28;31.15;;;;;;;;;;5006315;28;20050;-81
2023/10/10 10:37:39;;;;;;;41.50;27.52;;;;;;;;;;4995021;28;20064;-88
2023/10/10 10:42:53;;;;;;;40.25;27.23;;;;;;;;;;5022941;28;20443;-86
2023/10/10 10:45:23;;;;;;;;;;;;;;;;;;5022524;28;20092;-85
2023/10/10 10:47:59;;;;;;;43.17;27.48;;;20.10;99.90;;;;;;4994074;28;21014;-85
2023/10/10 10:50:29;;;;;;;41.22;27.60;;;;;;;;;;5004525;28;20041;-85
2023/10/10 10:53:08;;;;;;;39.95;27.30;;;;;;;;;;5006995;28;20047;-85
2023/10/10 10:55:39;;;;;;;39.95;26.98;;;;;;;;;;5003673;28;20045;-85
2023/10/10 11:01:07;;;;;;;43.08;28.45;;;;;;;;;;5002688;28;20053;-85
2023/10/10 11:03:43;;;;;;;40.65;28.15;;;;;;;;;;5006004;28;20103;-84
2023/10/10 11:06:10;;;;;;;41.72;26.55;;;;;;;;;;4986562;28;20416;-86
2023/10/10 11:09:38;;;;;;;40.40;28.95;;;;;;;;;;4994024;28;20037;-85
2023/10/10 11:14:09;;;;;;;42.58;28.83;;;;;;;;;;5007975;28;20173;-85
2023/10/10 11:16:38;;;;;;;44.20;26.25;;;;;;;;;;4993554;28;20050;-87
2023/10/10 11:21:49;;;;;;;40.00;26.08;;;;;;;;;;5006671;28;20140;-86
2023/10/10 11:24:23;;;;;;;42.47;27.35;;;;;;;;;;5010781;28;20046;-85
2023/10/10 11:26:56;;;;;;;44.67;29.50;;;;;;;;;;4977687;28;20033;-80
2023/10/10 11:29:27;;;;;;;40.40;26.83;;;;;;;;;;5020693;28;20273;-83
2023/10/10 11:32:08;;;;;;;38.63;25.65;;;;;;;;;;5001700;28;20659;-82
2023/10/10 11:34:44;;;;;;;42.13;27.13;;;;;;;;;;5001754;28;20103;-80
2023/10/10 11:37:13;;;;;;;39.88;27.08;;;;;;;;;;5003915;28;20057;-80
2023/10/10 11:39:47;;;;;;;36.17;26.40;;;;;;;;;;5001012;28;20552;-80
2023/10/10 11:42:24;;;;;;;41.78;26.98;;;;;;;;;;5023654;28;20049;-81
2023/10/10 11:45:10;;;;;;;47.78;28.10;;;;;;;;;;5003147;28;20045;-80
2023/10/10 11:47:42;;;;;;;43.50;26.45;;;;;;;;;;4992694;28;20053;-81
2023/10/10 11:50:17;;;;;;;46.15;27.77;;;;;;;;;;5020978;28;20120;-86
2023/10/10 11:52:53;;;;;;;44.80;26.20;;;;;;;;;;5002038;28;20051;-87
2023/10/10 11:55:20;;;;;;;40.75;25.98;;;;;;;;;;4990453;28;20120;-87
2023/10/10 11:58:06;;;;;;;43.83;28.88;;;;;;;;;;5006619;28;20037;-85
2023/10/10 12:00:44;;;;;;;39.70;26.98;;;;;;;;;;4992438;28;20095;-84
2023/10/10 12:03:11;;;;;;;41.25;27.75;;;;;;;;;;5001706;28;20178;-84
2023/10/10 12:05:50;;;;;;;41.53;27.63;;;;;;;;;;5005537;28;20119;-83
2023/10/10 12:08:24;;;;;;;40.05;28.13;;;;;;;;;;4995189;28;20445;-83
2023/10/10 12:11:03;;;;;;;42.95;26.70;;;;;;;;;;4999540;28;20038;-83
2023/10/10 12:15:55;;;;;;;38.90;25.13;;;;;;;;;;4987670;28;20049;-83
2023/10/10 12:18:21;;;;;;;39.47;23.92;;;;;;;;;;4989440;28;20053;-83
2023/10/10 12:20:48;;;;;;;37.17;24.02;;;;;;;;;;4985601;28;20034;-84
2023/10/10 12:23:23;;;;;;;36.88;24.77;;;;;;;;;;4995099;28;20071;-83
2023/10/10 12:26:03;;;;;;;40.97;24.45;;;;;;;;;;4991603;28;20094;-82
2023/10/10 12:28:29;;;;;;;35.05;22.92;;;;;;;;;;5007499;28;20030;-82
2023/10/10 12:31:03;;;;;;;38.85;24.30;;;;;;;;;;4992492;28;20061;-82
2023/10/10 12:33:30;;;;;;;35.55;24.02;;;;;;;;;;5007511;28;20049;-82
2023/10/10 12:35:57;;;;;;;31.45;22.33;;;;;;;;;;4982434;28;20059;-82
2023/10/10 12:38:23;;;;;;;39.45;22.20;;;21.50;99.90;;;;;;4989160;28;20045;-82
2023/10/10 12:40:52;;;;;;;33.90;23.02;;;;;;;;;;4985279;28;20045;-82
2023/10/10 12:43:19;;;;;;;38.75;23.30;;;;;;;;;;4999197;28;20520;-82
2023/10/10 12:45:50;;;;;;;27.65;20.70;;;;;;;;;;5004812;28;20038;-82
2023/10/10 12:48:20;;;;;;;32.67;21.30;;;;;;;;;;4985063;28;20042;-82
2023/10/10 12:50:50;;;;;;;30.02;20.70;;;;;;;;;;5007211;28;20497;-83
2023/10/10 12:53:19;;;;;;;33.85;20.52;;;;;;;;;;5011450;28;20052;-83
2023/10/10 12:55:49;;;;;;;36.10;21.67;;;;;;;;;;4994477;28;20069;-84
2023/10/10 12:58:16;;;;;;;31.63;22.08;;;;;;;;;;4993582;28;20049;-80
2023/10/10 13:00:51;;;;;;;29.75;20.70;;;;;;;;;;5008422;28;20048;-80
2023/10/10 13:03:27;;;;;;;34.70;21.73;;;;;;;;;;5024090;28;20128;-80
2023/10/10 13:06:04;;;;;;;29.33;20.58;;;;;;;;;;5024941;28;20050;-80
2023/10/10 13:11:43;;;;;;;31.70;20.55;;;;;;;;;;4989171;28;20042;-88
2023/10/10 13:14:10;;;;;;;;;;;;;;;;;;4977794;28;20054;-87
2023/10/10 13:19:09;;;;;;;33.80;20.05;;;;;;;;;;5010109;28;20497;-87
2023/10/10 13:21:42;;;;;;;37.63;20.55;;;21.90;99.90;;;;;;5011223;28;20080;-84
2023/10/10 13:24:13;;;;;;;35.88;21.25;;;;;;;;;;5014702;28;20069;-86
2023/10/10 13:26:40;;;;;;;31.65;19.45;;;;;;;;;;5010055;28;20053;-88
2023/10/10 13:29:07;;;;;;;28.25;20.05;;;;;;;;;;4982427;28;20046;-86
2023/10/10 13:31:33;;;;;;;34.40;21.13;;;;;;;;;;4993680;28;20049;-86
2023/10/10 13:33:59;;;;;;;26.30;19.40;;;;;;;;;;5009246;28;20056;-86
2023/10/10 13:36:25;;;;;;;33.67;20.73;;;;;;;;;;4994814;28;20044;-88
2023/10/10 13:38:57;;;;;;;33.53;21.88;;;;;;;;;;5012152;28;20067;-86
2023/10/10 13:41:27;;;;;;;29.90;20.58;;;;;;;;;;4994888;28;20045;-87
2023/10/10 13:43:54;;;;;;;30.58;20.92;;;;;;;;;;5006306;28;20073;-86
2023/10/10 13:46:23;;;;;;;29.40;21.17;;;;;;;;;;5008278;28;20038;-89
2023/10/10 13:48:50;;;;;;;30.05;21.20;;;;;;;;;;4994225;28;20404;-84
2023/10/10 13:51:16;;;;;;;34.15;21.98;;;;;;;;;;4996300;28;20041;-86
2023/10/10 13:53:44;;;;;;;31.52;22.13;;;;;;;;;;5007113;28;20080;-86
2023/10/10 13:56:12;;;;;;;38.83;24.77;;;;;;;;;;4995259;28;20128;-89
2023/10/10 13:58:40;;;;;;;31.90;23.48;;;;;;;;;;4979990;28;20049;-83
2023/10/10 14:01:14;;;;;;;34.67;22.15;;;;;;;;;;5008899;28;20053;-85
2023/10/10 14:03:45;;;;;;;33.38;22.63;;;20.80;99.90;;;;;;5011071;28;20091;-87
2023/10/10 14:06:13;;;;;;;34.38;23.58;;;;;;;;;;5008021;28;20076;-86
2023/10/10 14:08:47;;;;;;;33.35;22.58;;;;;;;;;;5005233;28;20123;-88
2023/10/10 14:11:20;;;;;;;34.97;21.48;;;;;;;;;;4976968;28;20496;-82
2023/10/10 14:13:48;;;;;;;32.85;21.95;;;;;;;;;;4978931;28;20045;-82
2023/10/10 14:16:14;;;;;;;39.42;20.40;;;;;;;;;;4987424;28;20041;-83
2023/10/10 14:18:45;;;;;;;33.25;21.70;;;;;;;;;;4994844;28;20049;-82
2023/10/10 14:21:12;;;;;;;30.08;18.52;;;;;;;;;;4977525;28;20044;-84
2023/10/10 14:23:39;;;;;;;30.98;20.55;;;;;;;;;;5008617;28;20048;-83
2023/10/10 14:26:27;;;;;;;30.25;19.85;;;;;;;;;;5008762;28;20100;-83
2023/10/10 14:28:52;;;;;;;27.05;18.58;;;;;;;;;;5006620;28;20135;-83
2023/10/10 14:31:31;;;;;;;24.70;17.77;;;;;;;;;;4996000;28;20037;-82
2023/10/10 14:34:00;;;;;;;29.90;19.10;;;;;;;;;;5003416;28;20069;-83
2023/10/10 14:36:39;;;;;;;33.40;19.23;;;;;;;;;;4996324;28;20037;-86
2023/10/10 14:39:08;;;;;;;31.08;17.38;;;;;;;;;;4978193;28;20194;-82
2023/10/10 14:41:34;;;;;;;32.92;19.10;;;;;;;;;;5008145;28;20099;-83
2023/10/10 14:44:01;;;;;;;31.42;20.00;;;;;;;;;;4987199;28;20144;-82
2023/10/10 14:46:31;;;;;;;32.70;20.55;;;;;;;;;;5008923;28;20038;-83
2023/10/10 14:49:05;;;;;;;29.98;18.77;;;;;;;;;;5011392;28;20072;-82
2023/10/10 14:51:33;;;;;;;27.98;18.70;;;;;;;;;;4990432;28;20046;-82
2023/10/10 14:54:06;;;;;;;26.90;19.80;;;;;;;;;;4983721;28;20508;-83
2023/10/10 14:56:35;;;;;;;28.83;18.83;;;;;;;;;;5006039;28;20099;-84
2023/10/10 14:59:06;;;;;;;26.40;19.65;;;;;;;;;;4987710;28;20041;-83
2023/10/10 15:01:36;;;;;;;31.95;19.42;;;;;;;;;;4969958;28;20037;-82
2023/10/10 15:04:05;;;;;;;27.83;19.45;;;;;;;;;;4993811;28;20037;-83
2023/10/10 15:06:33;;;;;;;30.27;19.73;;;;;;;;;;4989710;28;20030;-83
2023/10/10 15:08:59;;;;;;;29.00;18.42;;;;;;;;;;4977628;28;20049;-84
2023/10/10 15:11:29;;;;;;;33.08;19.10;;;;;;;;;;4991130;28;20131;-85
2023/10/10 15:13:58;;;;;;;25.98;19.02;;;;;;;;;;4989958;28;20042;-84
2023/10/10 15:16:27;;;;;;;30.38;17.85;;;;;;;;;;4987215;28;20408;-84
2023/10/10 15:18:53;;;;;;;32.00;18.90;;;;;;;;;;4989657;28;20437;-84
2023/10/10 15:21:20;;;;;;;27.88;18.58;;;;;;;;;;4988171;28;20033;-84
2023/10/10 15:23:46;;;;;;;25.80;17.98;;;;;;;;;;4979025;28;20489;-84
2023/10/10 15:26:22;;;;;;;27.48;18.35;;;;;;;;;;4992686;28;21758;-84
2023/10/10 15:28:52;;;;;;;29.27;17.85;;;;;;;;;;5000938;28;20041;-85
2023/10/10 15:31:20;;;;;;;33.83;19.27;;;;;;;;;;4978580;28;20049;-85
2023/10/10 15:33:47;;;;;;;31.67;19.73;;;;;;;;;;4998559;28;20377;-85
2023/10/10 15:36:16;;;;;;;33.78;18.38;;;;;;;;;;4987745;28;20399;-85
2023/10/10 15:38:43;;;;;;;30.52;18.55;;;;;;;;;;4990884;28;20053;-85
2023/10/10 15:41:19;;;;;;;26.70;18.55;;;;;;;;;;5006055;28;20073;-86
2023/10/10 15:43:49;;;;;;;26.80;17.77;;;;;;;;;;4998527;28;20071;-87
2023/10/10 15:46:19;;;;;;;29.35;18.88;;;;;;;;;;4998490;28;20046;-85
2023/10/10 15:48:49;;;;;;;32.17;19.77;;;;;;;;;;5014153;28;20034;-84
2023/10/10 15:51:20;;;;;;;31.75;20.20;;;;;;;;;;4999148;28;20033;-84
2023/10/10 15:53:47;;;;;;;29.48;20.13;;;;;;;;;;4997846;28;20485;-85
2023/10/10 15:56:17;;;;;;;29.60;20.55;;;;;;;;;;4988360;28;20038;-86
2023/10/10 15:58:43;;;;;;;32.20;20.20;;;;;;;;;;4990132;28;20132;-85
2023/10/10 16:01:35;;;;;;;30.92;19.17;;;19.60;99.90;;;;;;4992469;28;20056;-85
2023/10/10 16:04:12;;;;;;;34.30;21.98;;;;;;;;;;4971835;28;20049;-85
2023/10/10 16:06:39;;;;;;;29.40;20.67;;;;;;;;;;5003561;28;20041;-85
2023/10/10 16:09:40;;;;;;;33.83;22.35;;;;;;;;;;5006555;28;20413;-86
2023/10/10 16:11:59;;;;;;;30.63;20.27;;;;;;;;;;5000357;28;20042;-84
2023/10/10 16:14:25;;;;;;;31.15;21.60;;;;;;;;;;4974076;28;20041;-85
2023/10/10 16:16:51;;;;;;;34.05;21.65;;;;;;;;;;4974052;28;20029;-85
2023/10/10 16:19:24;;;;;;;39.15;23.30;;;;;;;;;;5003490;28;20038;-84
2023/10/10 16:21:54;;;;;;;34.17;22.35;;;;;;;;;;4990758;28;20049;-85
2023/10/10 16:24:21;;;;;;;33.33;22.45;;;;;;;;;;4988405;28;20049;-83
2023/10/10 16:27:01;;;;;;;33.28;20.85;;;;;;;;;;4997885;28;20045;-83
2023/10/10 16:29:32;;;;;;;33.00;21.85;;;;;;;;;;4988554;28;20036;-83
2023/10/10 16:31:59;;;;;;;31.40;20.92;;;;;;;;;;5007110;28;20045;-86
2023/10/10 16:34:26;;;;;;;28.17;18.70;;;;;;;;;;4983160;28;20068;-85
2023/10/10 16:36:52;;;;;;;28.33;20.08;;;;;;;;;;5006281;28;20070;-89
2023/10/10 16:39:19;;;;;;;28.85;19.55;;;;;;;;;;5009296;28;20053;-83
2023/10/10 16:41:47;;;;;;;30.50;19.70;;;;;;;;;;4990526;28;20033;-82
2023/10/10 16:44:14;;;;;;;29.83;20.98;;;;;;;;;;4991464;28;20042;-83
2023/10/10 16:46:40;;;;;;;29.55;20.30;;;;;;;;;;5006430;28;20128;-82
2023/10/10 16:49:07;;;;;;;29.63;19.27;;;;;;;;;;4980459;28;20041;-83
2023/10/10 16:51:33;;;;;;;28.67;18.52;;;;;;;;;;4980746;28;20413;-82
2023/10/10 16:53:59;;;;;;;29.50;19.35;;;;;;;;;;4988739;28;20099;-82
2023/10/10 16:56:27;;;;;;;26.30;19.15;;;;;;;;;;4999931;28;20080;-81
2023/10/10 16:58:53;;;;;;;31.05;20.05;;;;;;;;;;4974392;28;20128;-81
2023/10/10 17:01:23;;;;;;;27.40;19.55;;;;;;;;;;4970518;28;20137;-83
2023/10/10 17:03:50;;;;;;;33.58;19.77;;;;;;;;;;5001240;28;20107;-82
2023/10/10 17:06:22;;;;;;;28.67;18.63;;;;;;;;;;4969280;28;20133;-81
2023/10/10 17:08:48;;;;;;;28.42;18.70;;;;;;;;;;4983328;28;20550;-81
2023/10/10 17:11:17;;;;;;;28.27;18.02;;;;;;;;;;4998665;28;20124;-83
2023/10/10 17:13:43;;;;;;;31.33;17.98;;;;;;;;;;4983533;28;20052;-82
2023/10/10 17:16:14;;;;;;;24.92;18.15;;;;;;;;;;4996735;28;20044;-80
2023/10/10 17:18:43;;;;;;;26.27;17.05;;;;;;;;;;4966721;28;20077;-80
2023/10/10 17:21:12;;;;;;;25.27;17.42;;;;;;;;;;4992601;28;21848;-83
2023/10/10 17:23:39;;;;;;;26.10;17.38;;;;;;;;;;5002189;28;20064;-81
2023/10/10 17:26:05;;;;;;;24.83;17.63;;;;;;;;;;5002279;28;20037;-82
2023/10/10 17:28:32;;;;;;;29.92;18.08;;;;;;;;;;5004569;28;20124;-81
2023/10/10 17:30:59;;;;;;;26.70;17.40;;;;;;;;;;4987537;28;20047;-81
2023/10/10 17:33:25;;;;;;;26.92;17.13;;;;;;;;;;5000804;28;20058;-81
2023/10/10 17:35:51;;;;;;;26.50;17.58;;;;;;;;;;5003185;28;20053;-81
2023/10/10 17:38:21;;;;;;;23.85;16.33;;;;;;;;;;4981093;28;20041;-80
2023/10/10 17:40:47;;;;;;;24.00;16.92;;;;;;;;;;4993911;28;20041;-80
2023/10/10 17:43:14;;;;;;;24.13;16.45;;;;;;;;;;5007777;28;20041;-81
2023/10/10 17:45:40;;;;;;;24.20;16.83;;;;;;;;;;4995973;28;20156;-80